sensor_id;sensor_type;location;lat;lon;timestamp;P1;durP1;ratioP1;P2;durP2;ratioP2
38653;SDS011;24413;52.450;20.706;2023-07-30T18:12:29;4.07;;;3.75;;
38653;SDS011;24413;52.450;20.706;2023-07-30T18:14:54;8.63;;;3.70;;
38653;SDS011;24413;52.450;20.706;2023-07-30T18:17:20;5.47;;;3.67;;
38653;SDS011;24413;52.450;20.706;2023-07-30T18:19:48;10.40;;;3.20;;
38653;SDS011;24413;52.450;20.706;2023-07-30T18:22:14;4.07;;;3.70;;
38653;SDS011;24413;52.450;20.706;2023-07-30T18:24:39;7.03;;;4.03;;
38653;SDS011;24413;52.450;20.706;2023-07-30T18:27:05;5.60;;;4.03;;
38653;SDS011;24413;52.450;20.706;2023-07-30T18:29:31;7.10;;;3.75;;
38653;SDS011;24413;52.450;20.706;2023-07-30T18:32:05;4.95;;;3.53;;
38653;SDS011;24413;52.450;20.706;2023-07-30T18:34:35;3.95;;;3.60;;
38653;SDS011;24413;52.450;20.706;2023-07-30T18:37:01;5.43;;;3.53;;
38653;SDS011;24413;52.450;20.706;2023-07-30T18:39:27;3.95;;;3.55;;
38653;SDS011;24413;52.450;20.706;2023-07-30T18:41:53;8.63;;;3.92;;
38653;SDS011;24413;52.450;20.706;2023-07-30T18:44:19;7.15;;;3.25;;
38653;SDS011;24413;52.450;20.706;2023-07-30T18:46:44;6.55;;;3.28;;
38653;SDS011;24413;52.450;20.706;2023-07-30T18:49:09;3.90;;;3.50;;
38653;SDS011;24413;52.450;20.706;2023-07-30T18:51:35;4.38;;;3.40;;
38653;SDS011;24413;52.450;20.706;2023-07-30T18:54:00;3.85;;;3.55;;
38653;SDS011;24413;52.450;20.706;2023-07-30T18:56:26;5.68;;;3.85;;
38653;SDS011;24413;52.450;20.706;2023-07-30T18:58:51;3.90;;;3.45;;
38653;SDS011;24413;52.450;20.706;2023-07-30T19:01:17;6.68;;;3.47;;
38653;SDS011;24413;52.450;20.706;2023-07-30T19:03:42;7.85;;;3.70;;
38653;SDS011;24413;52.450;20.706;2023-07-30T19:06:08;3.65;;;3.35;;
38653;SDS011;24413;52.450;20.706;2023-07-30T19:08:33;19.35;;;9.82;;
38653;SDS011;24413;52.450;20.706;2023-07-30T19:10:59;18.25;;;10.35;;
38653;SDS011;24413;52.450;20.706;2023-07-30T19:13:24;19.05;;;11.23;;
38653;SDS011;24413;52.450;20.706;2023-07-30T19:15:51;15.02;;;9.80;;
38653;SDS011;24413;52.450;20.706;2023-07-30T19:18:19;23.27;;;12.38;;
38653;SDS011;24413;52.450;20.706;2023-07-30T19:20:45;8.95;;;6.80;;
38653;SDS011;24413;52.450;20.706;2023-07-30T19:23:11;11.75;;;5.45;;
38653;SDS011;24413;52.450;20.706;2023-07-30T19:25:37;7.95;;;6.07;;
38653;SDS011;24413;52.450;20.706;2023-07-30T19:28:02;6.65;;;5.03;;
38653;SDS011;24413;52.450;20.706;2023-07-30T19:30:31;8.80;;;6.93;;
38653;SDS011;24413;52.450;20.706;2023-07-30T19:32:57;9.88;;;7.20;;
38653;SDS011;24413;52.450;20.706;2023-07-30T19:35:23;9.35;;;7.85;;
38653;SDS011;24413;52.450;20.706;2023-07-30T19:37:48;12.57;;;8.18;;
38653;SDS011;24413;52.450;20.706;2023-07-30T19:40:13;18.77;;;9.95;;
38653;SDS011;24413;52.450;20.706;2023-07-30T19:42:39;11.05;;;7.93;;
38653;SDS011;24413;52.450;20.706;2023-07-30T19:45:05;9.52;;;5.85;;
38653;SDS011;24413;52.450;20.706;2023-07-30T19:47:30;6.63;;;5.57;;
38653;SDS011;24413;52.450;20.706;2023-07-30T19:49:56;9.80;;;5.50;;
38653;SDS011;24413;52.450;20.706;2023-07-30T19:52:22;6.25;;;5.63;;
38653;SDS011;24413;52.450;20.706;2023-07-30T19:54:48;5.88;;;5.25;;
38653;SDS011;24413;52.450;20.706;2023-07-30T19:57:13;9.40;;;5.40;;
38653;SDS011;24413;52.450;20.706;2023-07-30T19:59:38;5.88;;;4.80;;
38653;SDS011;24413;52.450;20.706;2023-07-30T20:02:04;8.02;;;5.13;;
38653;SDS011;24413;52.450;20.706;2023-07-30T20:04:30;7.57;;;4.93;;
38653;SDS011;24413;52.450;20.706;2023-07-30T20:06:55;6.43;;;5.38;;
38653;SDS011;24413;52.450;20.706;2023-07-30T20:09:21;5.15;;;4.65;;
38653;SDS011;24413;52.450;20.706;2023-07-30T20:11:47;4.75;;;4.32;;
38653;SDS011;24413;52.450;20.706;2023-07-30T20:14:12;5.53;;;4.13;;
38653;SDS011;24413;52.450;20.706;2023-07-30T20:16:37;10.18;;;6.60;;
38653;SDS011;24413;52.450;20.706;2023-07-30T20:19:03;11.13;;;5.40;;
38653;SDS011;24413;52.450;20.706;2023-07-30T20:21:29;7.90;;;6.32;;
38653;SDS011;24413;52.450;20.706;2023-07-30T20:23:54;11.75;;;6.43;;
38653;SDS011;24413;52.450;20.706;2023-07-30T20:26:19;7.20;;;6.50;;
38653;SDS011;24413;52.450;20.706;2023-07-30T20:28:47;8.52;;;6.75;;
38653;SDS011;24413;52.450;20.706;2023-07-30T20:31:14;6.90;;;6.30;;
38653;SDS011;24413;52.450;20.706;2023-07-30T20:33:39;8.38;;;5.97;;
38653;SDS011;24413;52.450;20.706;2023-07-30T20:36:05;9.30;;;6.78;;
38653;SDS011;24413;52.450;20.706;2023-07-30T20:38:30;9.65;;;6.03;;
38653;SDS011;24413;52.450;20.706;2023-07-30T20:40:59;7.53;;;6.00;;
38653;SDS011;24413;52.450;20.706;2023-07-30T20:43:25;7.05;;;6.35;;
38653;SDS011;24413;52.450;20.706;2023-07-30T20:45:50;8.05;;;5.90;;
38653;SDS011;24413;52.450;20.706;2023-07-30T20:48:16;9.00;;;5.45;;
38653;SDS011;24413;52.450;20.706;2023-07-30T20:50:41;10.57;;;5.20;;
38653;SDS011;24413;52.450;20.706;2023-07-30T20:53:07;6.78;;;5.07;;
38653;SDS011;24413;52.450;20.706;2023-07-30T20:55:32;6.32;;;5.45;;
38653;SDS011;24413;52.450;20.706;2023-07-30T20:57:57;5.97;;;4.80;;
38653;SDS011;24413;52.450;20.706;2023-07-30T21:00:23;5.78;;;4.82;;
38653;SDS011;24413;52.450;20.706;2023-07-30T21:02:49;10.20;;;4.68;;
38653;SDS011;24413;52.450;20.706;2023-07-30T21:05:14;7.63;;;4.78;;
38653;SDS011;24413;52.450;20.706;2023-07-30T21:07:40;6.97;;;4.63;;
38653;SDS011;24413;52.450;20.706;2023-07-30T21:10:05;8.07;;;4.47;;
38653;SDS011;24413;52.450;20.706;2023-07-30T21:12:31;15.52;;;4.55;;
38653;SDS011;24413;52.450;20.706;2023-07-30T21:14:57;5.53;;;5.03;;
38653;SDS011;24413;52.450;20.706;2023-07-30T21:17:22;8.15;;;4.55;;
38653;SDS011;24413;52.450;20.706;2023-07-30T21:19:48;5.70;;;5.07;;
38653;SDS011;24413;52.450;20.706;2023-07-30T21:22:14;8.95;;;4.55;;
38653;SDS011;24413;52.450;20.706;2023-07-30T21:24:39;5.72;;;5.03;;
38653;SDS011;24413;52.450;20.706;2023-07-30T21:27:05;6.25;;;5.15;;
38653;SDS011;24413;52.450;20.706;2023-07-30T21:29:31;11.38;;;5.65;;
38653;SDS011;24413;52.450;20.706;2023-07-30T21:31:57;5.43;;;4.63;;
38653;SDS011;24413;52.450;20.706;2023-07-30T21:34:22;7.25;;;4.97;;
38653;SDS011;24413;52.450;20.706;2023-07-30T21:36:47;6.72;;;5.75;;
38653;SDS011;24413;52.450;20.706;2023-07-30T21:39:13;5.93;;;5.25;;
38653;SDS011;24413;52.450;20.706;2023-07-30T21:41:39;9.73;;;5.72;;
38653;SDS011;24413;52.450;20.706;2023-07-30T21:44:04;6.47;;;5.72;;
38653;SDS011;24413;52.450;20.706;2023-07-30T21:46:29;8.25;;;5.18;;
38653;SDS011;24413;52.450;20.706;2023-07-30T21:48:55;6.38;;;4.75;;
38653;SDS011;24413;52.450;20.706;2023-07-30T21:51:20;5.65;;;4.97;;
38653;SDS011;24413;52.450;20.706;2023-07-30T21:53:46;6.68;;;4.72;;
38653;SDS011;24413;52.450;20.706;2023-07-30T21:56:11;5.50;;;4.43;;
38653;SDS011;24413;52.450;20.706;2023-07-30T21:58:37;6.05;;;3.97;;
38653;SDS011;24413;52.450;20.706;2023-07-30T22:01:03;5.60;;;3.90;;
38653;SDS011;24413;52.450;20.706;2023-07-30T22:03:28;6.25;;;4.55;;
38653;SDS011;24413;52.450;20.706;2023-07-30T22:05:54;7.75;;;4.05;;
38653;SDS011;24413;52.450;20.706;2023-07-30T22:08:20;7.88;;;4.13;;
38653;SDS011;24413;52.450;20.706;2023-07-30T22:10:46;5.18;;;4.30;;
38653;SDS011;24413;52.450;20.706;2023-07-30T22:13:12;5.03;;;4.30;;
38653;SDS011;24413;52.450;20.706;2023-07-30T22:15:38;5.32;;;4.00;;
38653;SDS011;24413;52.450;20.706;2023-07-30T22:18:04;6.10;;;4.25;;
38653;SDS011;24413;52.450;20.706;2023-07-30T22:20:30;6.70;;;4.50;;
38653;SDS011;24413;52.450;20.706;2023-07-30T22:22:55;4.60;;;4.20;;
38653;SDS011;24413;52.450;20.706;2023-07-30T22:25:21;10.10;;;4.30;;
38653;SDS011;24413;52.450;20.706;2023-07-30T22:27:46;5.68;;;4.38;;
38653;SDS011;24413;52.450;20.706;2023-07-30T22:30:12;7.43;;;4.25;;
38653;SDS011;24413;52.450;20.706;2023-07-30T22:32:37;6.57;;;4.10;;
38653;SDS011;24413;52.450;20.706;2023-07-30T22:35:03;4.47;;;4.07;;
38653;SDS011;24413;52.450;20.706;2023-07-30T22:37:29;19.70;;;4.35;;
38653;SDS011;24413;52.450;20.706;2023-07-30T22:39:55;10.18;;;3.95;;
38653;SDS011;24413;52.450;20.706;2023-07-30T22:42:20;11.25;;;3.88;;
38653;SDS011;24413;52.450;20.706;2023-07-30T22:44:46;4.00;;;3.25;;
38653;SDS011;24413;52.450;20.706;2023-07-30T22:47:11;5.63;;;3.47;;
38653;SDS011;24413;52.450;20.706;2023-07-30T22:49:37;16.00;;;4.07;;
38653;SDS011;24413;52.450;20.706;2023-07-30T22:52:02;3.47;;;3.17;;
38653;SDS011;24413;52.450;20.706;2023-07-30T22:54:28;7.15;;;3.60;;
38653;SDS011;24413;52.450;20.706;2023-07-30T22:56:54;8.32;;;3.85;;
38653;SDS011;24413;52.450;20.706;2023-07-30T22:59:19;3.63;;;3.20;;
38653;SDS011;24413;52.450;20.706;2023-07-30T23:01:45;11.77;;;3.38;;
38653;SDS011;24413;52.450;20.706;2023-07-30T23:04:10;4.45;;;3.13;;
38653;SDS011;24413;52.450;20.706;2023-07-30T23:06:35;6.40;;;3.47;;
38653;SDS011;24413;52.450;20.706;2023-07-30T23:09:01;5.22;;;3.72;;
38653;SDS011;24413;52.450;20.706;2023-07-30T23:11:26;4.15;;;3.30;;
38653;SDS011;24413;52.450;20.706;2023-07-30T23:13:52;5.18;;;3.47;;
38653;SDS011;24413;52.450;20.706;2023-07-30T23:16:17;4.05;;;3.33;;
38653;SDS011;24413;52.450;20.706;2023-07-30T23:18:43;5.97;;;2.90;;
38653;SDS011;24413;52.450;20.706;2023-07-30T23:21:08;4.22;;;3.10;;
38653;SDS011;24413;52.450;20.706;2023-07-30T23:23:34;5.38;;;3.30;;
38653;SDS011;24413;52.450;20.706;2023-07-30T23:25:59;3.47;;;3.10;;
38653;SDS011;24413;52.450;20.706;2023-07-30T23:28:24;5.60;;;3.38;;
38653;SDS011;24413;52.450;20.706;2023-07-30T23:30:50;7.57;;;3.13;;
38653;SDS011;24413;52.450;20.706;2023-07-30T23:33:15;5.88;;;3.30;;
38653;SDS011;24413;52.450;20.706;2023-07-30T23:35:41;6.40;;;2.90;;
38653;SDS011;24413;52.450;20.706;2023-07-30T23:38:06;10.57;;;3.22;;
38653;SDS011;24413;52.450;20.706;2023-07-30T23:40:32;7.07;;;3.28;;
38653;SDS011;24413;52.450;20.706;2023-07-30T23:42:57;5.05;;;3.10;;
38653;SDS011;24413;52.450;20.706;2023-07-30T23:45:22;3.50;;;3.15;;
38653;SDS011;24413;52.450;20.706;2023-07-30T23:47:48;4.18;;;2.90;;
38653;SDS011;24413;52.450;20.706;2023-07-30T23:50:14;5.07;;;2.88;;
38653;SDS011;24413;52.450;20.706;2023-07-30T23:52:39;5.55;;;2.85;;
38653;SDS011;24413;52.450;20.706;2023-07-30T23:55:05;4.80;;;2.97;;
38653;SDS011;24413;52.450;20.706;2023-07-30T23:57:31;4.50;;;2.67;;
38653;SDS011;24413;52.450;20.706;2023-07-30T23:59:56;3.33;;;2.90;;
